Time;durP1;ratioP1;P1;durP2;ratioP2;P2;SDS_P1;SDS_P2;PMS_P1;PMS_P2;Temp;Humidity;BMP_temperature;BMP_pressure;BME280_temperature;BME280_humidity;BME280_pressure;Samples;Min_cycle;Max_cycle;Signal;HPM_P1;HPM_P2
2022/07/07 00:01:59;;;;;;;2.50;1.37;;;17.10;1.00;;;;;;6160978;23;20437;-83
2022/07/07 00:04:26;;;;;;;1.20;1.10;;;17.00;1.00;;;;;;6171584;23;20522;-85
2022/07/07 00:06:59;;;;;;;2.83;1.57;;;17.10;1.00;;;;;;6153878;23;20561;-78
2022/07/07 00:09:27;;;;;;;2.00;1.37;;;17.10;1.00;;;;;;6169620;23;21100;-84
2022/07/07 00:12:00;;;;;;;4.43;1.40;;;17.20;1.00;;;;;;6169408;23;20445;-84
2022/07/07 00:14:29;;;;;;;2.83;1.60;;;17.20;1.00;;;;;;6171430;23;20430;-78
2022/07/07 00:17:00;;;;;;;1.97;1.40;;;17.20;1.00;;;;;;6166683;23;20375;-79
2022/07/07 00:19:27;;;;;;;5.40;1.40;;;17.20;1.00;;;;;;6170339;23;20442;-79
2022/07/07 00:21:59;;;;;;;2.30;1.30;;;17.10;1.00;;;;;;6167545;23;20391;-78
2022/07/07 00:24:26;;;;;;;4.10;1.33;;;17.10;1.00;;;;;;6171232;23;20776;-83
2022/07/07 00:26:55;;;;;;;3.00;1.80;;;17.10;1.00;;;;;;6170341;23;20431;-82
2022/07/07 00:29:23;;;;;;;1.07;0.83;;;17.10;1.00;;;;;;6168454;23;20449;-83
2022/07/07 00:31:52;;;;;;;2.03;1.10;;;17.10;1.00;;;;;;6167178;23;20406;-80
2022/07/07 00:34:22;;;;;;;2.33;1.27;;;17.20;1.00;;;;;;6168100;23;20423;-82
2022/07/07 00:36:49;;;;;;;2.30;1.00;;;17.20;1.00;;;;;;6169891;23;20423;-79
2022/07/07 00:39:19;;;;;;;2.80;1.40;;;17.10;1.00;;;;;;6169009;23;20422;-78
2022/07/07 00:41:46;;;;;;;1.03;0.80;;;17.10;1.00;;;;;;6169364;23;20421;-79
2022/07/07 00:44:17;;;;;;;1.27;1.00;;;17.20;1.00;;;;;;6169227;23;20442;-79
2022/07/07 00:46:46;;;;;;;1.80;1.43;;;17.20;1.00;;;;;;6170145;23;20738;-82
2022/07/07 00:49:20;;;;;;;0.97;0.80;;;17.20;1.00;;;;;;6167859;23;20518;-83
2022/07/07 00:51:48;;;;;;;1.03;0.80;;;17.20;1.00;;;;;;6170119;23;20506;-84
2022/07/07 00:54:20;;;;;;;2.53;1.07;;;17.10;1.00;;;;;;6166095;23;20417;-79
2022/07/07 00:56:46;;;;;;;1.37;1.27;;;17.10;1.00;;;;;;6169246;23;20520;-82
2022/07/07 00:59:15;;;;;;;2.73;1.00;;;17.10;1.00;;;;;;6168881;23;20402;-78
2022/07/07 01:01:44;;;;;;;2.80;1.07;;;17.20;1.00;;;;;;6162775;23;20435;-80
2022/07/07 01:04:20;;;;;;;1.50;1.07;;;17.20;1.00;;;;;;6168944;23;20427;-84
2022/07/07 01:06:46;;;;;;;2.80;1.23;;;17.10;1.00;;;;;;6167790;23;20422;-84
2022/07/07 01:09:14;;;;;;;1.87;1.10;;;17.10;1.00;;;;;;6169995;23;20546;-82
2022/07/07 01:11:46;;;;;;;1.23;1.00;;;17.10;1.00;;;;;;6171953;23;20437;-83
2022/07/07 01:14:18;;;;;;;2.30;1.07;;;17.10;1.00;;;;;;6170657;23;20449;-79
2022/07/07 01:16:46;;;;;;;2.80;1.10;;;17.20;1.00;;;;;;6169951;23;20466;-78
2022/07/07 01:19:19;;;;;;;2.80;1.27;;;17.20;1.00;;;;;;6168026;23;20425;-77
2022/07/07 01:22:00;;;;;;;1.87;1.27;;;17.20;1.00;;;;;;6141364;23;20446;-82
2022/07/07 01:24:32;;;;;;;2.63;1.17;;;17.30;1.00;;;;;;6168946;23;20426;-84
2022/07/07 01:27:10;;;;;;;3.17;1.10;;;17.30;1.00;;;;;;6167568;23;20423;-78
2022/07/07 01:29:47;;;;;;;1.77;1.13;;;17.10;1.00;;;;;;6169283;23;20564;-79
2022/07/07 01:32:27;;;;;;;4.63;1.33;;;16.90;1.00;;;;;;6170815;23;20970;-83
2022/07/07 01:34:56;;;;;;;2.37;1.10;;;16.70;1.00;;;;;;6167563;23;20410;-79
2022/07/07 01:37:24;;;;;;;2.97;1.07;;;16.50;1.00;;;;;;6164917;23;20426;-79
2022/07/07 01:39:53;;;;;;;1.60;1.10;;;16.40;1.00;;;;;;6159724;23;20402;-79
2022/07/07 01:42:21;;;;;;;1.47;0.70;;;16.30;1.00;;;;;;6164774;23;20426;-80
2022/07/07 01:44:50;;;;;;;1.20;1.10;;;16.20;1.00;;;;;;6163854;23;20509;-79
2022/07/07 01:47:19;;;;;;;1.07;0.97;;;16.10;1.00;;;;;;6161659;23;20474;-79
2022/07/07 01:49:47;;;;;;;3.17;1.47;;;15.90;1.00;;;;;;6163546;23;20498;-80
2022/07/07 01:52:19;;;;;;;2.70;1.47;;;15.80;1.00;;;;;;6162837;23;20406;-78
2022/07/07 01:54:46;;;;;;;3.57;1.10;;;15.70;1.00;;;;;;6170357;23;20434;-79
2022/07/07 01:57:15;;;;;;;4.20;1.30;;;15.50;1.00;;;;;;6164657;23;20497;-77
2022/07/07 01:59:43;;;;;;;2.03;1.13;;;15.40;1.00;;;;;;6168907;23;20398;-78
2022/07/07 02:02:10;;;;;;;1.47;1.17;;;15.40;1.00;;;;;;6166494;23;20423;-81
2022/07/07 02:04:41;;;;;;;1.57;1.40;;;15.20;1.00;;;;;;6172369;23;20434;-83
2022/07/07 02:07:08;;;;;;;3.03;1.37;;;15.10;1.00;;;;;;6171728;23;20391;-82
2022/07/07 02:09:35;;;;;;;1.87;1.27;;;15.10;1.00;;;;;;6170510;23;20429;-81
2022/07/07 02:12:03;;;;;;;2.70;1.20;;;15.00;1.00;;;;;;6172026;23;20411;-83
2022/07/07 02:14:31;;;;;;;1.30;1.20;;;14.90;1.00;;;;;;6172680;23;20462;-82
2022/07/07 02:17:03;;;;;;;3.70;1.53;;;14.80;1.00;;;;;;6172550;23;20402;-81
2022/07/07 02:19:31;;;;;;;2.70;1.53;;;14.70;1.00;;;;;;6167863;23;20509;-83
2022/07/07 02:22:05;;;;;;;1.83;1.27;;;14.60;1.00;;;;;;6170024;23;20394;-84
2022/07/07 02:24:31;;;;;;;2.10;1.90;;;14.70;1.00;;;;;;6172534;23;20442;-81
2022/07/07 02:27:04;;;;;;;2.53;1.50;;;14.60;1.00;;;;;;6172175;23;20407;-81
2022/07/07 02:29:32;;;;;;;1.73;1.30;;;14.50;1.00;;;;;;6145561;23;20407;-78
2022/07/07 02:32:04;;;;;;;4.87;1.70;;;14.50;1.00;;;;;;6171038;23;20407;-78
2022/07/07 02:34:31;;;;;;;3.40;1.70;;;14.50;1.00;;;;;;6170680;23;20438;-80
2022/07/07 02:37:03;;;;;;;2.00;1.70;;;14.50;1.00;;;;;;6168560;23;20455;-81
2022/07/07 02:39:30;;;;;;;4.60;2.10;;;14.40;1.00;;;;;;6170231;23;20498;-81
2022/07/07 02:42:03;;;;;;;3.97;2.40;;;14.40;1.00;;;;;;6169804;23;20429;-80
2022/07/07 02:44:34;;;;;;;4.53;2.50;;;14.30;1.00;;;;;;6169439;23;20454;-79
2022/07/07 02:47:03;;;;;;;2.50;2.30;;;14.30;1.00;;;;;;6161887;23;20478;-79
2022/07/07 02:49:37;;;;;;;2.97;2.20;;;14.30;1.00;;;;;;6169724;23;20378;-78
2022/07/07 02:52:14;;;;;;;2.93;2.00;;;14.30;1.00;;;;;;6171969;23;21196;-80
2022/07/07 02:54:44;;;;;;;1.97;1.87;;;14.20;1.00;;;;;;6168671;23;21018;-81
2022/07/07 02:57:15;;;;;;;4.10;2.00;;;14.10;1.00;;;;;;6155734;23;20462;-79
2022/07/07 02:59:48;;;;;;;2.80;2.00;;;14.10;1.00;;;;;;6165440;23;20419;-78
2022/07/07 03:02:22;;;;;;;3.63;2.37;;;14.00;1.00;;;;;;6164380;23;20537;-79
2022/07/07 03:04:50;;;;;;;4.30;2.20;;;14.10;1.00;;;;;;6170307;23;20948;-81
2022/07/07 03:07:22;;;;;;;5.13;2.80;;;14.00;1.00;;;;;;6168892;23;20422;-78
2022/07/07 03:09:49;;;;;;;2.77;2.30;;;14.00;1.00;;;;;;6167858;23;20422;-80
2022/07/07 03:12:19;;;;;;;2.90;2.30;;;14.00;1.00;;;;;;6168522;23;20438;-80
2022/07/07 03:14:52;;;;;;;3.13;2.53;;;14.00;1.00;;;;;;6169806;23;20439;-80
2022/07/07 03:17:19;;;;;;;4.47;2.63;;;14.00;1.00;;;;;;6164412;23;21182;-80
2022/07/07 03:19:46;;;;;;;2.90;2.60;;;13.90;1.00;;;;;;6163151;23;20489;-79
2022/07/07 03:22:13;;;;;;;4.03;2.67;;;14.00;1.00;;;;;;6149728;23;20394;-80
2022/07/07 03:24:39;;;;;;;4.63;2.90;;;14.00;1.00;;;;;;6162549;23;20501;-80
2022/07/07 03:27:06;;;;;;;4.13;2.93;;;13.90;1.00;;;;;;6161323;23;20418;-80
2022/07/07 03:29:33;;;;;;;3.60;3.30;;;13.90;1.00;;;;;;6162602;23;20988;-79
2022/07/07 03:32:02;;;;;;;6.00;5.07;;;13.80;1.00;;;;;;6164095;23;20506;-80
2022/07/07 03:34:29;;;;;;;8.73;3.00;;;13.70;1.00;;;;;;6166212;23;20462;-79
2022/07/07 03:36:57;;;;;;;10.30;3.67;;;13.60;1.00;;;;;;6164644;23;20547;-80
2022/07/07 03:39:25;;;;;;;10.10;3.17;;;13.70;1.00;;;;;;6164380;23;20406;-79
2022/07/07 03:41:51;;;;;;;11.30;3.80;;;13.60;1.00;;;;;;6164809;23;20429;-79
2022/07/07 03:44:19;;;;;;;10.77;3.70;;;13.60;1.00;;;;;;6163812;23;20423;-77
2022/07/07 03:46:46;;;;;;;9.27;3.80;;;13.70;1.00;;;;;;6163509;23;20383;-76
2022/07/07 03:49:14;;;;;;;10.67;3.23;;;13.70;1.00;;;;;;6166360;23;21048;-78
2022/07/07 03:51:45;;;;;;;9.27;3.43;;;13.60;1.00;;;;;;6166586;23;20411;-78
2022/07/07 03:54:12;;;;;;;9.67;4.33;;;13.50;1.00;;;;;;6164153;23;20445;-79
2022/07/07 03:56:44;;;;;;;7.97;3.70;;;13.50;1.00;;;;;;6167356;23;20421;-76
2022/07/07 03:59:11;;;;;;;7.73;3.33;;;13.50;1.00;;;;;;6169617;23;20990;-76
2022/07/07 04:01:44;;;;;;;7.70;3.63;;;13.50;1.00;;;;;;6168358;23;20522;-75
2022/07/07 04:04:12;;;;;;;8.47;3.83;;;13.40;1.00;;;;;;6168059;23;20467;-79
2022/07/07 04:06:47;;;;;;;7.10;3.53;;;13.40;1.00;;;;;;6164895;23;20439;-76
2022/07/07 04:09:14;;;;;;;7.17;4.17;;;13.50;1.00;;;;;;6168375;23;20406;-77
2022/07/07 04:11:43;;;;;;;8.83;5.00;;;13.50;1.00;;;;;;6168153;23;20417;-77
2022/07/07 04:14:09;;;;;;;7.10;4.00;;;13.60;1.00;;;;;;6164374;23;20896;-77
2022/07/07 04:16:36;;;;;;;7.63;3.90;;;13.60;1.00;;;;;;6162513;23;20465;-79
2022/07/07 04:19:04;;;;;;;7.10;3.37;;;13.70;1.00;;;;;;6168625;23;20402;-78
2022/07/07 04:21:31;;;;;;;6.43;4.07;;;13.70;1.00;;;;;;6169612;23;20426;-76
2022/07/07 04:24:01;;;;;;;7.90;3.43;;;13.70;1.00;;;;;;6163933;23;20462;-77
2022/07/07 04:26:33;;;;;;;10.77;4.90;;;13.60;1.00;;;;;;6163592;23;21077;-80
2022/07/07 04:29:05;;;;;;;8.77;4.50;;;13.60;1.00;;;;;;6160353;23;21301;-78
2022/07/07 04:31:35;;;;;;;8.37;4.63;;;13.70;1.00;;;;;;6165651;23;20450;-77
2022/07/07 04:34:04;;;;;;;7.27;4.20;;;13.80;1.00;;;;;;6163830;23;20414;-78
2022/07/07 04:36:34;;;;;;;8.90;5.17;;;13.70;1.00;;;;;;6167847;23;20467;-78
2022/07/07 04:39:05;;;;;;;4.77;4.33;;;13.60;1.00;;;;;;6165887;23;20434;-78
2022/07/07 04:41:34;;;;;;;6.50;4.57;;;13.70;1.00;;;;;;6169511;23;20415;-77
2022/07/07 04:44:03;;;;;;;7.30;4.70;;;13.60;1.00;;;;;;6151020;23;20813;-78
2022/07/07 04:46:41;;;;;;;5.90;5.27;;;13.60;1.00;;;;;;6165863;23;20403;-77
2022/07/07 04:49:08;;;;;;;4.87;4.40;;;13.60;1.00;;;;;;6166719;23;20830;-77
2022/07/07 04:51:35;;;;;;;5.10;4.30;;;13.70;1.00;;;;;;6170262;23;20421;-76
2022/07/07 04:54:06;;;;;;;5.50;5.00;;;13.60;1.00;;;;;;6168387;23;20450;-79
2022/07/07 04:56:36;;;;;;;6.67;4.90;;;13.70;1.00;;;;;;6171199;23;20414;-79
2022/07/07 04:59:04;;;;;;;6.43;5.27;;;13.70;1.00;;;;;;6169360;23;20403;-76
2022/07/07 05:01:43;;;;;;;5.13;4.70;;;13.70;1.00;;;;;;6168205;23;20422;-77
2022/07/07 05:04:10;;;;;;;5.80;5.20;;;13.60;1.00;;;;;;6165063;23;21209;-78
2022/07/07 05:06:37;;;;;;;6.53;5.80;;;13.70;1.00;;;;;;6171051;23;20806;-78
2022/07/07 05:09:06;;;;;;;5.57;5.07;;;13.70;1.00;;;;;;6171861;23;20566;-77
2022/07/07 05:11:35;;;;;;;5.70;5.20;;;13.80;1.00;;;;;;6169931;23;20395;-75
2022/07/07 05:14:06;;;;;;;6.10;5.50;;;13.80;1.00;;;;;;6169777;23;20434;-80
2022/07/07 05:16:33;;;;;;;6.70;5.70;;;13.80;1.00;;;;;;6171825;23;20414;-77
2022/07/07 05:19:09;;;;;;;6.23;5.60;;;13.70;1.00;;;;;;6168067;23;20395;-77
2022/07/07 05:21:36;;;;;;;6.27;5.67;;;13.80;1.00;;;;;;6147062;23;20414;-79
2022/07/07 05:24:07;;;;;;;6.73;6.13;;;13.90;1.00;;;;;;6168089;23;20418;-76
2022/07/07 05:26:34;;;;;;;6.17;5.23;;;13.80;1.00;;;;;;6171432;23;21230;-79
2022/07/07 05:29:04;;;;;;;6.60;6.10;;;13.90;1.00;;;;;;6166899;23;20589;-79
2022/07/07 05:31:31;;;;;;;6.47;5.90;;;13.90;1.00;;;;;;6170593;23;20430;-76
2022/07/07 05:34:03;;;;;;;6.67;5.97;;;13.90;1.00;;;;;;6169913;23;20402;-79
2022/07/07 05:36:30;;;;;;;6.47;5.70;;;13.90;1.00;;;;;;6170179;23;20375;-80
2022/07/07 05:38:57;;;;;;;8.20;6.70;;;13.90;1.00;;;;;;6170407;23;20420;-80
2022/07/07 05:41:26;;;;;;;7.13;6.23;;;13.90;1.00;;;;;;6169175;23;20427;-77
2022/07/07 05:43:53;;;;;;;6.33;5.70;;;14.00;1.00;;;;;;6167156;23;20780;-80
2022/07/07 05:46:24;;;;;;;6.80;6.20;;;13.90;1.00;;;;;;6169123;23;20413;-77
2022/07/07 05:48:51;;;;;;;5.90;5.37;;;13.90;1.00;;;;;;6169403;23;20443;-77
2022/07/07 05:51:21;;;;;;;6.47;5.80;;;13.90;1.00;;;;;;6169105;23;20423;-77
2022/07/07 05:53:50;;;;;;;6.70;6.00;;;13.80;1.00;;;;;;6172041;23;21030;-79
2022/07/07 05:56:16;;;;;;;7.40;6.80;;;13.80;1.00;;;;;;6168367;23;20435;-77
2022/07/07 05:58:46;;;;;;;7.30;6.43;;;13.80;1.00;;;;;;6169152;23;20444;-80
2022/07/07 06:01:15;;;;;;;7.33;5.83;;;13.90;1.00;;;;;;6166853;23;20419;-78
2022/07/07 06:03:47;;;;;;;5.50;5.00;;;13.90;1.00;;;;;;6169454;23;20414;-79
2022/07/07 06:06:14;;;;;;;7.60;6.17;;;13.80;1.00;;;;;;6168362;23;20557;-79
2022/07/07 06:08:44;;;;;;;6.57;5.80;;;13.80;1.00;;;;;;6167483;23;20402;-76
2022/07/07 06:11:11;;;;;;;8.80;6.87;;;13.70;1.00;;;;;;6156804;23;22397;-77
2022/07/07 06:13:38;;;;;;;8.47;6.90;;;13.70;1.00;;;;;;6168428;23;20430;-75
2022/07/07 06:16:12;;;;;;;7.90;7.20;;;13.70;1.00;;;;;;6164369;23;20419;-77
2022/07/07 06:18:44;;;;;;;8.33;7.17;;;13.80;1.00;;;;;;6171262;23;20536;-79
2022/07/07 06:21:11;;;;;;;7.27;6.57;;;13.80;1.00;;;;;;6166407;23;20840;-78
2022/07/07 06:23:43;;;;;;;8.00;7.13;;;13.80;1.00;;;;;;6168270;23;20437;-76
2022/07/07 06:26:10;;;;;;;11.10;7.20;;;13.90;1.00;;;;;;6167404;23;20441;-78
2022/07/07 06:28:37;;;;;;;8.77;7.97;;;13.90;1.00;;;;;;6167340;23;20537;-78
2022/07/07 06:31:04;;;;;;;10.03;9.10;;;13.80;1.00;;;;;;6133947;23;20768;-80
2022/07/07 06:33:36;;;;;;;8.63;7.83;;;13.90;1.00;;;;;;6161647;23;20390;-78
2022/07/07 06:36:06;;;;;;;9.40;7.93;;;14.00;1.00;;;;;;6152430;23;20780;-77
2022/07/07 06:38:33;;;;;;;9.13;8.03;;;14.00;1.00;;;;;;6163441;23;20414;-77
2022/07/07 06:41:05;;;;;;;9.43;8.50;;;14.10;1.00;;;;;;6164956;23;20386;-79
2022/07/07 06:43:32;;;;;;;9.00;8.20;;;13.90;1.00;;;;;;6167203;23;20490;-78
2022/07/07 06:46:05;;;;;;;9.37;8.47;;;13.80;1.00;;;;;;6165834;23;20410;-78
2022/07/07 06:48:34;;;;;;;9.10;8.30;;;13.80;1.00;;;;;;6166115;23;20415;-77
2022/07/07 06:51:05;;;;;;;9.70;8.80;;;13.70;1.00;;;;;;6166216;23;20415;-77
2022/07/07 06:53:35;;;;;;;10.40;9.50;;;13.80;1.00;;;;;;6167277;23;21009;-79
2022/07/07 06:56:05;;;;;;;9.80;8.90;;;13.90;1.00;;;;;;6149329;23;20419;-77
2022/07/07 06:58:32;;;;;;;8.50;7.80;;;14.00;1.00;;;;;;6168495;23;20435;-79
2022/07/07 07:01:06;;;;;;;9.97;9.07;;;14.00;1.00;;;;;;6167330;23;20437;-79
2022/07/07 07:03:35;;;;;;;8.50;7.80;;;14.00;1.00;;;;;;6170285;23;20429;-78
2022/07/07 07:06:03;;;;;;;8.70;7.80;;;14.00;1.00;;;;;;6166554;23;20411;-77
2022/07/07 07:08:30;;;;;;;9.53;8.40;;;14.00;1.00;;;;;;6167625;23;20419;-78
2022/07/07 07:10:57;;;;;;;7.90;7.30;;;14.10;1.00;;;;;;6168956;23;20403;-78
2022/07/07 07:13:28;;;;;;;8.53;7.73;;;14.10;1.00;;;;;;6169228;23;20394;-79
2022/07/07 07:15:55;;;;;;;8.40;7.70;;;14.10;1.00;;;;;;6167508;23;20446;-79
2022/07/07 07:18:25;;;;;;;7.57;6.97;;;14.10;1.00;;;;;;6168145;23;20426;-82
2022/07/07 07:20:55;;;;;;;7.50;6.70;;;14.20;1.00;;;;;;6168314;23;20513;-82
2022/07/07 07:23:25;;;;;;;7.40;6.80;;;14.10;1.00;;;;;;6166789;23;20458;-80
2022/07/07 07:25:52;;;;;;;7.23;6.63;;;14.10;1.00;;;;;;6170261;23;20450;-80
2022/07/07 07:28:25;;;;;;;7.23;6.73;;;14.20;1.00;;;;;;6168068;23;20824;-81
2022/07/07 07:30:52;;;;;;;8.13;7.37;;;14.20;1.00;;;;;;6168443;23;20446;-81
2022/07/07 07:33:24;;;;;;;8.40;7.60;;;14.30;1.00;;;;;;6166905;23;20541;-78
2022/07/07 07:35:51;;;;;;;7.87;7.27;;;14.40;1.00;;;;;;6167936;23;20502;-80
2022/07/07 07:38:28;;;;;;;7.37;6.77;;;14.50;1.00;;;;;;6169457;23;20471;-83
2022/07/07 07:40:56;;;;;;;8.10;7.30;;;14.50;1.00;;;;;;6143267;23;20985;-79
2022/07/07 07:43:25;;;;;;;8.57;7.77;;;14.60;1.00;;;;;;6167391;23;20402;-77
2022/07/07 07:45:52;;;;;;;6.70;6.10;;;14.60;1.00;;;;;;6164780;23;20421;-77
2022/07/07 07:48:24;;;;;;;8.27;7.67;;;14.60;1.00;;;;;;6165840;23;20427;-81
2022/07/07 07:50:51;;;;;;;9.27;8.47;;;14.50;1.00;;;;;;6169270;23;20466;-79
2022/07/07 07:53:25;;;;;;;7.70;7.00;;;14.60;1.00;;;;;;6170209;23;20434;-79
2022/07/07 07:55:55;;;;;;;8.30;7.70;;;14.60;1.00;;;;;;6167862;23;20411;-78
2022/07/07 07:58:25;;;;;;;7.73;7.13;;;14.60;1.00;;;;;;6168772;23;20422;-81
2022/07/07 08:00:52;;;;;;;7.80;7.20;;;14.50;1.00;;;;;;6168781;23;20418;-78
2022/07/07 08:06:05;;;;;;;8.33;7.80;;;14.60;1.00;;;;;;6169299;23;20526;-86
2022/07/07 08:08:34;;;;;;;8.50;7.70;;;14.70;1.00;;;;;;6170963;23;20418;-80
2022/07/07 08:11:01;;;;;;;8.23;7.63;;;14.70;1.00;;;;;;6161042;23;20510;-78
2022/07/07 08:13:28;;;;;;;7.90;7.20;;;14.70;1.00;;;;;;6161772;23;20433;-77
2022/07/07 08:15:55;;;;;;;9.23;8.53;;;14.70;1.00;;;;;;6159925;23;21003;-77
2022/07/07 08:18:27;;;;;;;8.23;7.63;;;14.80;1.00;;;;;;6162327;23;20431;-76
2022/07/07 08:20:53;;;;;;;9.13;8.43;;;14.80;1.00;;;;;;6163306;23;20422;-79
2022/07/07 08:23:25;;;;;;;9.37;8.70;;;14.90;1.00;;;;;;6165410;23;20475;-79
2022/07/07 08:25:53;;;;;;;7.97;7.37;;;14.90;1.00;;;;;;6169163;23;20418;-76
2022/07/07 08:28:25;;;;;;;8.30;7.60;;;14.90;1.00;;;;;;6162735;23;20419;-77
2022/07/07 08:30:51;;;;;;;8.43;7.73;;;14.90;1.00;;;;;;6165089;23;20485;-78
2022/07/07 08:33:18;;;;;;;9.40;8.70;;;14.80;1.00;;;;;;6164957;23;20915;-76
2022/07/07 08:35:45;;;;;;;8.37;7.83;;;14.80;1.00;;;;;;6165632;23;20429;-77
2022/07/07 08:38:12;;;;;;;7.60;6.83;;;14.90;1.00;;;;;;6164791;23;20558;-79
2022/07/07 08:40:44;;;;;;;8.33;7.63;;;14.90;1.00;;;;;;6164906;23;20423;-76
2022/07/07 08:43:12;;;;;;;6.83;6.33;;;15.00;1.00;;;;;;6163512;23;20862;-76
2022/07/07 08:45:44;;;;;;;6.87;6.37;;;15.00;1.00;;;;;;6164254;23;20941;-76
2022/07/07 08:48:10;;;;;;;7.83;7.13;;;15.00;1.00;;;;;;6164564;23;20426;-75
2022/07/07 08:50:39;;;;;;;7.53;6.93;;;15.10;1.00;;;;;;6153721;23;20429;-78
2022/07/07 08:53:13;;;;;;;7.57;6.97;;;15.30;1.00;;;;;;6164545;23;20433;-76
2022/07/07 08:55:42;;;;;;;7.20;6.60;;;15.40;1.00;;;;;;6165284;23;20426;-76
2022/07/07 08:58:18;;;;;;;7.50;6.87;;;15.40;1.00;;;;;;6129307;23;20474;-75
2022/07/07 09:00:45;;;;;;;7.57;6.97;;;15.50;1.00;;;;;;6146804;23;20421;-76
2022/07/07 09:03:17;;;;;;;7.57;7.00;;;15.50;1.00;;;;;;6155212;23;20446;-77
2022/07/07 09:05:44;;;;;;;6.00;5.50;;;15.60;1.00;;;;;;6153723;23;20449;-78
2022/07/07 09:08:18;;;;;;;7.30;6.70;;;15.50;1.00;;;;;;6159387;23;20474;-75
2022/07/07 09:10:47;;;;;;;6.27;5.77;;;15.50;1.00;;;;;;6135064;23;20406;-77
2022/07/07 09:13:25;;;;;;;6.50;6.00;;;15.40;1.00;;;;;;6120420;23;20537;-78
2022/07/07 09:15:53;;;;;;;7.13;6.60;;;15.40;1.00;;;;;;6162243;23;20426;-77
2022/07/07 09:18:31;;;;;;;6.60;6.10;;;15.50;1.00;;;;;;6159216;23;20407;-78
2022/07/07 09:20:59;;;;;;;6.40;5.90;;;15.60;1.00;;;;;;6146500;23;20409;-77
2022/07/07 09:23:28;;;;;;;7.20;6.50;;;15.40;1.00;;;;;;6167052;23;20437;-77
2022/07/07 09:25:56;;;;;;;7.00;6.50;;;15.40;1.00;;;;;;6164010;23;20850;-79
2022/07/07 09:28:30;;;;;;;6.30;5.80;;;15.50;1.00;;;;;;6168755;23;20584;-78
2022/07/07 09:30:57;;;;;;;7.87;5.87;;;15.60;1.00;;;;;;6166373;23;20454;-77
2022/07/07 09:33:31;;;;;;;6.10;5.60;;;15.60;1.00;;;;;;6167943;23;20466;-77
2022/07/07 09:38:45;;;;;;;8.17;7.50;;;15.60;1.00;;;;;;6166881;23;20383;-78
2022/07/07 09:41:17;;;;;;;5.40;5.00;;;15.70;1.00;;;;;;6164987;23;20454;-79
2022/07/07 09:43:48;;;;;;;6.33;5.83;;;15.80;1.00;;;;;;6139243;23;20398;-76
2022/07/07 09:46:24;;;;;;;5.30;4.90;;;15.80;1.00;;;;;;6166984;23;20910;-78
2022/07/07 09:48:53;;;;;;;5.77;5.37;;;15.70;1.00;;;;;;6152957;23;20430;-79
2022/07/07 09:51:30;;;;;;;5.90;5.50;;;15.80;1.00;;;;;;6165037;23;20423;-77
2022/07/07 09:54:00;;;;;;;5.97;5.57;;;15.90;1.00;;;;;;6164237;23;20935;-76
2022/07/07 09:56:29;;;;;;;5.60;5.20;;;15.90;1.00;;;;;;6168343;23;20827;-75
2022/07/07 09:59:06;;;;;;;5.47;5.07;;;15.90;1.00;;;;;;6162681;23;20429;-76
2022/07/07 10:01:36;;;;;;;5.80;5.30;;;16.00;1.00;;;;;;6165074;23;20438;-76
2022/07/07 10:04:07;;;;;;;4.80;4.50;;;16.10;1.00;;;;;;6168550;23;20565;-80
2022/07/07 10:06:36;;;;;;;5.27;4.87;;;16.20;1.00;;;;;;6167426;23;20448;-77
2022/07/07 10:09:07;;;;;;;5.70;5.20;;;16.20;1.00;;;;;;6143724;23;20470;-77
2022/07/07 10:11:38;;;;;;;6.10;5.70;;;16.30;1.00;;;;;;6169020;23;20407;-76
2022/07/07 10:14:17;;;;;;;6.00;5.60;;;16.50;1.00;;;;;;6169039;23;20391;-77
2022/07/07 10:16:51;;;;;;;5.90;5.40;;;16.60;1.00;;;;;;6169691;23;20411;-79
2022/07/07 10:19:24;;;;;;;5.50;5.10;;;16.70;1.00;;;;;;6166801;23;20457;-76
2022/07/07 10:21:53;;;;;;;6.77;6.20;;;16.80;1.00;;;;;;6169097;23;20433;-75
2022/07/07 10:24:27;;;;;;;5.60;5.20;;;16.80;1.00;;;;;;6117239;23;20427;-78
2022/07/07 10:26:56;;;;;;;5.67;5.27;;;16.90;1.00;;;;;;6170168;23;20439;-80
2022/07/07 10:29:46;;;;;;;5.87;5.47;;;16.90;1.00;;;;;;6169967;23;20403;-79
2022/07/07 10:32:15;;;;;;;5.40;5.00;;;16.90;1.00;;;;;;6166223;23;20748;-76
2022/07/07 10:34:50;;;;;;;5.40;5.00;;;17.00;1.00;;;;;;6167034;23;20434;-77
2022/07/07 10:37:18;;;;;;;5.40;5.00;;;17.00;1.00;;;;;;6169232;23;20395;-77
2022/07/07 10:39:48;;;;;;;5.40;5.00;;;17.10;1.00;;;;;;6168342;23;20402;-77
2022/07/07 10:42:46;;;;;;;5.57;5.07;;;17.20;1.00;;;;;;6166912;23;20764;-80
2022/07/07 10:45:15;;;;;;;10.07;9.23;;;17.20;1.00;;;;;;6166775;23;20403;-76
2022/07/07 10:47:46;;;;;;;6.17;5.67;;;17.10;1.00;;;;;;6168920;23;20411;-76
2022/07/07 10:50:30;;;;;;;6.40;5.90;;;16.90;1.00;;;;;;6164791;23;20439;-77
2022/07/07 10:53:02;;;;;;;5.90;5.30;;;16.90;1.00;;;;;;6167596;23;20510;-76
2022/07/07 10:55:53;;;;;;;6.67;5.90;;;16.90;1.00;;;;;;6168576;23;20394;-76
2022/07/07 10:58:54;;;;;;;7.30;6.70;;;16.90;1.00;;;;;;6156089;23;20391;-76
2022/07/07 11:01:28;;;;;;;6.47;5.97;;;17.00;1.00;;;;;;6019321;23;20475;-77
2022/07/07 11:03:56;;;;;;;6.63;6.13;;;17.10;1.00;;;;;;6017703;23;20495;-76
2022/07/07 11:06:26;;;;;;;6.00;5.57;;;17.20;1.00;;;;;;6094480;23;20403;-76
2022/07/07 11:09:05;;;;;;;6.10;5.70;;;17.30;1.00;;;;;;6169541;23;21889;-78
2022/07/07 11:11:32;;;;;;;7.10;6.40;;;17.30;1.00;;;;;;6169489;23;20465;-76
2022/07/07 11:14:09;;;;;;;6.50;6.00;;;17.30;1.00;;;;;;6167054;23;20427;-76
2022/07/07 11:16:47;;;;;;;7.37;6.67;;;17.30;1.00;;;;;;6154382;23;20409;-78
2022/07/07 11:19:18;;;;;;;7.43;6.93;;;17.40;1.00;;;;;;6138950;23;20386;-77
2022/07/07 11:21:47;;;;;;;8.00;7.30;;;17.30;1.00;;;;;;6161959;23;20407;-76
2022/07/07 11:24:22;;;;;;;8.37;7.67;;;17.30;1.00;;;;;;6163182;23;20423;-76
2022/07/07 11:27:00;;;;;;;8.50;7.90;;;17.20;1.00;;;;;;6161184;23;20406;-78
2022/07/07 11:29:27;;;;;;;8.77;8.10;;;17.20;1.00;;;;;;6163324;23;20526;-78
2022/07/07 11:32:35;;;;;;;9.13;8.33;;;17.20;1.00;;;;;;6164907;23;20451;-79
2022/07/07 11:35:08;;;;;;;10.30;9.50;;;17.20;1.00;;;;;;6146817;23;20386;-77
2022/07/07 11:37:37;;;;;;;10.47;9.60;;;17.20;1.00;;;;;;6168854;23;20946;-78
2022/07/07 11:40:25;;;;;;;9.97;9.23;;;17.30;1.00;;;;;;6170245;23;20535;-78
2022/07/07 11:42:53;;;;;;;10.23;9.53;;;17.30;1.00;;;;;;6170481;23;20418;-77
2022/07/07 11:45:28;;;;;;;10.30;9.40;;;17.30;1.00;;;;;;6169678;23;20414;-77
2022/07/07 11:48:05;;;;;;;9.93;9.10;;;17.30;1.00;;;;;;6167120;23;20406;-78
2022/07/07 11:50:33;;;;;;;11.33;10.47;;;17.30;1.00;;;;;;6168996;23;20669;-78
2022/07/07 11:53:11;;;;;;;12.23;11.20;;;17.30;1.00;;;;;;6169134;23;20847;-78
2022/07/07 11:55:38;;;;;;;12.30;11.37;;;17.30;1.00;;;;;;6169015;23;20423;-76
2022/07/07 11:58:08;;;;;;;15.13;14.03;;;17.30;1.00;;;;;;6167868;23;20406;-79
2022/07/07 12:00:36;;;;;;;11.80;10.90;;;17.30;1.00;;;;;;6166296;23;20422;-79
2022/07/07 12:03:13;;;;;;;11.43;10.57;;;17.30;1.00;;;;;;6166365;23;20402;-78
2022/07/07 12:05:46;;;;;;;12.60;11.70;;;17.40;1.00;;;;;;6166864;23;20434;-76
2022/07/07 12:08:15;;;;;;;12.37;11.07;;;17.40;1.00;;;;;;6166772;23;20451;-77
2022/07/07 12:10:50;;;;;;;13.50;12.50;;;17.50;1.00;;;;;;6144331;23;20391;-78
2022/07/07 12:13:20;;;;;;;12.47;11.57;;;17.50;1.00;;;;;;6149287;23;20519;-78
2022/07/07 12:15:54;;;;;;;13.60;12.30;;;17.50;1.00;;;;;;6150217;23;20429;-77
2022/07/07 12:18:37;;;;;;;12.07;11.17;;;17.50;1.00;;;;;;6163659;23;20458;-77
2022/07/07 12:21:07;;;;;;;14.10;12.77;;;17.70;1.00;;;;;;6160037;23;20454;-79
2022/07/07 12:23:39;;;;;;;12.90;11.80;;;17.90;1.00;;;;;;6165132;23;20450;-79
2022/07/07 12:26:11;;;;;;;13.30;12.23;;;17.80;1.00;;;;;;6168115;23;20411;-77
2022/07/07 12:28:39;;;;;;;12.63;11.73;;;17.80;1.00;;;;;;6149480;23;20433;-78
2022/07/07 12:31:08;;;;;;;10.10;9.30;;;18.00;1.00;;;;;;6119655;23;20430;-76
2022/07/07 12:33:39;;;;;;;9.83;9.13;;;18.90;1.00;;;;;;6162259;23;20498;-77
2022/07/07 12:36:10;;;;;;;10.07;9.17;;;19.40;1.00;;;;;;6166197;23;20373;-77
2022/07/07 12:38:39;;;;;;;8.37;7.80;;;20.50;1.00;;;;;;6167584;23;20466;-78
2022/07/07 12:41:07;;;;;;;8.07;7.37;;;21.60;1.00;;;;;;6167998;23;20394;-76
2022/07/07 12:43:36;;;;;;;6.97;6.37;;;21.80;1.00;;;;;;6142463;23;20509;-75
2022/07/07 12:46:11;;;;;;;7.23;6.43;;;21.90;1.00;;;;;;6165308;23;20869;-76
2022/07/07 12:48:54;;;;;;;6.40;5.90;;;23.00;1.00;;;;;;6167106;23;20465;-78
2022/07/07 12:51:28;;;;;;;5.63;5.17;;;23.30;1.00;;;;;;6164553;23;20974;-76
2022/07/07 12:53:56;;;;;;;7.53;6.93;;;22.90;1.00;;;;;;6166671;23;20853;-76
2022/07/07 12:56:32;;;;;;;6.83;6.33;;;22.30;1.00;;;;;;6166911;23;20391;-77
2022/07/07 12:59:01;;;;;;;6.47;5.97;;;21.80;1.00;;;;;;6151233;23;20477;-77
2022/07/07 13:01:31;;;;;;;8.20;7.60;;;21.50;1.00;;;;;;6167188;23;20486;-77
2022/07/07 13:04:03;;;;;;;7.30;6.70;;;21.30;1.00;;;;;;6169642;23;20477;-77
2022/07/07 13:06:30;;;;;;;7.90;7.33;;;21.00;1.00;;;;;;6169011;23;20430;-77
2022/07/07 13:08:57;;;;;;;8.20;7.60;;;20.80;1.00;;;;;;6166986;23;20397;-77
2022/07/07 13:11:23;;;;;;;7.50;6.90;;;20.70;1.00;;;;;;6164000;23;20482;-76
2022/07/07 13:13:51;;;;;;;6.07;5.67;;;20.70;1.00;;;;;;6145567;23;20423;-75
2022/07/07 13:16:17;;;;;;;8.40;6.60;;;20.90;1.00;;;;;;6161921;23;20552;-77
2022/07/07 13:18:44;;;;;;;6.23;5.83;;;21.10;1.00;;;;;;6162333;23;20466;-78